Date,TemperatureHighF,TemperatureAvgF,TemperatureLowF,DewpointHighF,DewpointAvgF,DewpointLowF,HumidityHigh,HumidityAvg,HumidityLow,PressureMaxIn,PressureMinIn,WindSpeedMaxMPH,WindSpeedAvgMPH,GustSpeedMaxMPH,PrecipitationSumIn
2013-8-1,87.6,76.8,68.7,69.2,65.3,57.7,97,71,37,29.71,29.64,12,3,14,0.04
2013-8-2,90.1,80.6,61.7,67.7,64.7,60.0,94,61,42,29.73,29.67,5,1,9,0.00
2013-8-3,89.8,78.3,69.6,73.7,68.0,64.4,87,72,52,29.75,29.66,9,1,11,0.00
2013-8-4,84.9,73.8,61.3,64.4,56.4,50.7,84,57,33,29.84,29.74,15,2,19,0.00
2013-8-5,90.5,74.1,58.6,64.5,58.9,54.3,92,63,32,29.83,29.65,6,1,8,0.00
2013-8-6,88.2,74.6,68.0,70.2,64.5,61.1,84,72,51,29.67,29.62,5,0,7,0.00
2013-8-7,92.8,83.5,72.3,75.9,73.7,70.8,95,73,56,29.65,29.57,5,1,7,0.00
2013-8-8,95.2,81.8,73.8,77.3,74.0,71.0,94,78,52,29.65,29.57,7,1,10,0.19
2013-8-9,88.2,76.8,72.7,74.9,72.4,69.7,99,87,56,29.74,29.61,8,1,12,0.62
2013-8-10,92.8,79.2,72.3,75.3,72.1,69.0,91,80,54,29.81,29.72,4,0,4,0.00
2013-8-11,93.0,81.6,71.1,74.0,69.9,64.8,95,70,44,29.80,29.73,10,2,13,0.00
2013-8-12,95.0,77.0,66.9,74.3,69.7,65.0,97,80,47,29.80,29.58,4,0,6,0.00
2013-8-13,83.5,75.5,62.8,72.9,65.3,51.1,94,72,49,29.78,29.56,13,3,19,0.00
2013-8-14,79.9,66.7,54.9,53.1,50.6,45.9,83,59,36,29.87,29.77,13,2,14,0.00
2013-8-15,79.7,66.6,53.1,58.1,54.0,49.4,89,66,44,29.88,29.77,9,1,11,0.00
2013-8-16,85.8,71.5,56.7,61.5,56.6,53.4,90,62,36,29.85,29.78,8,1,9,0.00
2013-8-17,90.5,74.8,61.9,64.8,60.0,55.7,84,62,35,29.87,29.78,6,1,8,0.00
2013-8-18,93.0,75.7,61.7,67.1,62.6,58.7,95,67,34,29.88,29.78,6,1,8,0.00
2013-8-19,93.4,77.0,63.5,70.9,63.1,59.3,96,67,34,29.84,29.75,7,1,8,0.00
2013-8-20,91.4,76.8,64.4,72.6,67.2,61.9,93,74,47,29.87,26.77,10,1,12,0.00
2013-8-21,95.7,79.2,69.3,73.8,69.9,66.7,98,76,42,29.87,29.75,6,1,8,0.00
2013-8-22,95.9,78.7,68.9,74.3,69.1,65.6,97,75,41,29.82,29.72,14,1,20,0.00
2013-8-23,92.1,79.0,70.7,71.5,68.5,65.7,93,72,47,29.82,29.74,9,1,11,0.00
2013-8-24,96.4,79.2,65.1,68.8,62.4,48.6,89,62,24,29.95,29.82,8,1,11,0.00
2013-8-25,96.4,78.5,62.2,69.8,62.5,55.6,94,63,28,30.03,29.91,5,1,6,0.00
2013-8-26,98.6,80.4,66.0,72.9,67.7,62.5,93,68,35,29.96,29.78,7,1,9,0.00
2013-8-27,98.1,82.8,71.4,76.7,72.6,69.3,94,73,47,29.81,29.67,6,1,8,0.00
2013-8-28,98.4,85.2,74.3,74.7,72.1,66.4,95,68,39,29.71,29.59,10,3,17,0.00
2013-8-29,95.2,80.9,74.7,75.2,71.5,66.4,92,75,41,29.71,29.65,8,1,8,0.00
2013-8-30,100.0,82.5,69.4,74.4,69.8,64.0,98,70,33,29.70,29.54,7,1,8,0.00
2013-8-31,102.9,80.0,70.7,76.5,72.0,67.7,97,79,41,29.61,29.44,22,2,27,1.36